ACA1 CYYZ-RJTT
Flight info
| Callsign | ACA1 |
|---|---|
| Flight time | N/A |
| Altitude | 30000 |
| Route | SILVU DCT 5086N DCT 56N094W 62N106W 64N113W 66N122W DCT POTAT DCT BTT DCT OME R338 NATES R220 IXE Y88 DAIGO Y10 GODIN |
| Aircraft | B77W/H-SDE1E2E3FGHIJ2J3J4J5M1RWXY/LB1D1 |
Departure
| Time | N/A |
|---|---|
| Airport | Toronto Pearson International Airport (CYYZ) |
Arrival
| Time | 2026-04-30 18:21 |
|---|---|
| Airport | Tokyo Haneda International Airport (RJTT) |
| Time | Latitude | Longitude | Altitude | Speed | Heading |
|---|---|---|---|---|---|
| 2026-04-30 17:39 | 38.82510 | 143.12204 | 36166 ft | 391 kts | 233° |
| 2026-04-30 17:42 | 38.54272 | 142.75498 | 36153 ft | 392 kts | 232° |
| 2026-04-30 17:43 | 38.35100 | 142.50836 | 36170 ft | 393 kts | 231° |
| 2026-04-30 17:44 | 38.13412 | 142.22719 | 36057 ft | 394 kts | 231° |
| 2026-04-30 17:47 | 37.78806 | 141.78209 | 36121 ft | 395 kts | 231° |
| 2026-04-30 17:48 | 37.51729 | 141.43797 | 36135 ft | 395 kts | 231° |
| 2026-04-30 17:50 | 37.20724 | 141.04856 | 36103 ft | 393 kts | 230° |
| 2026-04-30 17:52 | 36.99638 | 140.73859 | 36087 ft | 388 kts | 234° |
| 2026-04-30 17:53 | 36.84831 | 140.51002 | 35923 ft | 379 kts | 234° |
| 2026-04-30 17:54 | 36.78183 | 140.40786 | 32307 ft | 395 kts | 233° |
| 2026-04-30 17:55 | 36.68371 | 140.33612 | 28991 ft | 430 kts | 197° |
| 2026-04-30 17:56 | 36.56728 | 140.31428 | 26205 ft | 416 kts | 196° |
| 2026-04-30 17:57 | 36.48178 | 140.29694 | 24131 ft | 412 kts | 195° |
| 2026-04-30 17:58 | 36.39767 | 140.28008 | 22053 ft | 406 kts | 195° |
| 2026-04-30 17:59 | 36.28660 | 140.25803 | 19456 ft | 401 kts | 193° |
| 2026-04-30 18:00 | 36.17709 | 140.23635 | 17183 ft | 391 kts | 192° |
| 2026-04-30 18:00 | 36.09775 | 140.22060 | 15681 ft | 380 kts | 191° |
| 2026-04-30 18:01 | 36.04598 | 140.21035 | 14887 ft | 369 kts | 191° |
| 2026-04-30 18:02 | 35.97403 | 140.20956 | 14626 ft | 335 kts | 161° |
| 2026-04-30 18:02 | 35.92443 | 140.26523 | 14077 ft | 320 kts | 133° |
| 2026-04-30 18:03 | 35.88320 | 140.32951 | 12994 ft | 315 kts | 132° |
| 2026-04-30 18:04 | 35.84326 | 140.39250 | 12000 ft | 308 kts | 132° |
| 2026-04-30 18:05 | 35.78767 | 140.46863 | 10532 ft | 289 kts | 162° |
| 2026-04-30 18:06 | 35.71366 | 140.47575 | 9467 ft | 252 kts | 193° |
| 2026-04-30 18:07 | 35.64453 | 140.45671 | 9223 ft | 249 kts | 192° |
| 2026-04-30 18:08 | 35.59362 | 140.44394 | 9074 ft | 253 kts | 192° |
| 2026-04-30 18:09 | 35.52492 | 140.42732 | 8850 ft | 250 kts | 193° |
| 2026-04-30 18:10 | 35.48220 | 140.36386 | 7495 ft | 257 kts | 241° |
| 2026-04-30 18:11 | 35.45313 | 140.28501 | 6866 ft | 259 kts | 241° |
| 2026-04-30 18:11 | 35.43064 | 140.22482 | 6530 ft | 257 kts | 240° |
| 2026-04-30 18:12 | 35.40833 | 140.16542 | 6192 ft | 254 kts | 239° |
| 2026-04-30 18:13 | 35.39365 | 140.12649 | 5961 ft | 251 kts | 239° |
| 2026-04-30 18:13 | 35.37429 | 140.07522 | 5685 ft | 240 kts | 239° |
| 2026-04-30 18:14 | 35.35863 | 140.03375 | 5489 ft | 225 kts | 238° |
| 2026-04-30 18:15 | 35.33952 | 139.98329 | 5416 ft | 209 kts | 238° |
| 2026-04-30 18:15 | 35.33419 | 139.93279 | 4839 ft | 231 kts | 302° |
| 2026-04-30 18:16 | 35.36007 | 139.91019 | 4203 ft | 231 kts | 330° |
| 2026-04-30 18:16 | 35.38749 | 139.89100 | 3436 ft | 216 kts | 331° |
| 2026-04-30 18:17 | 35.40029 | 139.88200 | 3183 ft | 211 kts | 331° |
| 2026-04-30 18:17 | 35.41290 | 139.87312 | 2858 ft | 205 kts | 331° |
| 2026-04-30 18:17 | 35.43671 | 139.85629 | 2353 ft | 196 kts | 332° |
| 2026-04-30 18:18 | 35.44837 | 139.84805 | 2078 ft | 191 kts | 332° |
| 2026-04-30 18:18 | 35.45966 | 139.84008 | 1807 ft | 182 kts | 332° |
| 2026-04-30 18:18 | 35.47028 | 139.83256 | 1591 ft | 172 kts | 332° |
| 2026-04-30 18:18 | 35.48032 | 139.82545 | 1338 ft | 162 kts | 334° |
| 2026-04-30 18:19 | 35.49001 | 139.81863 | 1125 ft | 162 kts | 333° |
| 2026-04-30 18:19 | 35.49957 | 139.81186 | 926 ft | 153 kts | 333° |
| 2026-04-30 18:19 | 35.50831 | 139.80561 | 723 ft | 138 kts | 332° |
| 2026-04-30 18:19 | 35.51650 | 139.79984 | 543 ft | 137 kts | 333° |
| 2026-04-30 18:20 | 35.52483 | 139.79393 | 365 ft | 138 kts | 331° |
| 2026-04-30 18:20 | 35.53296 | 139.78815 | 198 ft | 132 kts | 332° |
| 2026-04-30 18:20 | 35.54078 | 139.78263 | 35 ft | 125 kts | 332° |
| 2026-04-30 18:20 | 35.54738 | 139.77799 | 30 ft | 89 kts | 330° |
| 2026-04-30 18:21 | 35.55140 | 139.77517 | 30 ft | 45 kts | 330° |
| 2026-04-30 18:21 | 35.55264 | 139.77353 | 29 ft | 17 kts | 301° |
| 2026-04-30 18:21 | 35.55326 | 139.77223 | 28 ft | 17 kts | 300° |
| 2026-04-30 18:21 | 35.55346 | 139.77104 | 28 ft | 12 kts | 238° |
| 2026-04-30 18:22 | 35.55298 | 139.77018 | 28 ft | 14 kts | 240° |
| 2026-04-30 18:22 | 35.55166 | 139.76738 | 28 ft | 19 kts | 238° |
| 2026-04-30 18:22 | 35.55099 | 139.76600 | 28 ft | 19 kts | 239° |
| 2026-04-30 18:23 | 35.55008 | 139.76487 | 28 ft | 19 kts | 216° |
| 2026-04-30 18:23 | 35.54912 | 139.76408 | 28 ft | 12 kts | 209° |
| 2026-04-30 18:23 | 35.54874 | 139.76421 | 28 ft | 5 kts | 130° |
| 2026-04-30 18:23 | 35.54845 | 139.76472 | 28 ft | 10 kts | 135° |
| 2026-04-30 18:24 | 35.54795 | 139.76513 | 28 ft | 1 kts | 149° |
| 2026-04-30 18:24 | 35.54789 | 139.76517 | 28 ft | 0 kts | 149° |